Time;durP1;ratioP1;P1;durP2;ratioP2;P2;SDS_P1;SDS_P2;PMS_P1;PMS_P2;Temp;Humidity;BMP_temperature;BMP_pressure;BME280_temperature;BME280_humidity;BME280_pressure;Samples;Min_cycle;Max_cycle;Signal;HPM_P1;HPM_P2
2022/07/26 00:01:57;;;;;;;8.20;6.22;;;23.00;99.90;;;;;;4978452;28;20228;-71
2022/07/26 00:04:23;;;;;;;8.15;6.28;;;23.10;99.90;;;;;;4994191;28;20206;-71
2022/07/26 00:06:49;;;;;;;7.70;5.88;;;23.00;99.90;;;;;;4997496;28;20292;-74
2022/07/26 00:09:14;;;;;;;6.03;5.43;;;23.00;99.90;;;;;;4983136;28;20222;-74
2022/07/26 00:11:40;;;;;;;6.20;5.20;;;23.00;99.90;;;;;;4984590;28;20181;-74
2022/07/26 00:14:07;;;;;;;9.25;6.70;;;23.20;99.90;;;;;;4993894;28;20209;-74
2022/07/26 00:16:34;;;;;;;8.13;6.43;;;23.20;99.90;;;;;;4987132;28;20260;-74
2022/07/26 00:18:59;;;;;;;7.00;5.80;;;23.00;99.90;;;;;;4995417;28;20205;-74
2022/07/26 00:21:25;;;;;;;6.72;5.80;;;23.10;99.90;;;;;;4994339;28;20217;-73
2022/07/26 00:23:51;;;;;;;7.95;6.05;;;23.00;99.90;;;;;;4991889;28;20178;-73
2022/07/26 00:26:16;;;;;;;6.90;5.70;;;23.00;99.90;;;;;;4965842;28;20595;-72
2022/07/26 00:28:42;;;;;;;6.88;6.10;;;22.90;99.90;;;;;;4999456;28;20219;-72
2022/07/26 00:31:08;;;;;;;7.35;5.53;;;22.90;99.90;;;;;;4992452;28;20284;-73
2022/07/26 00:33:34;;;;;;;10.25;5.95;;;23.00;99.90;;;;;;4987300;28;20214;-73
2022/07/26 00:35:59;;;;;;;7.10;6.15;;;23.00;99.90;;;;;;4995811;28;20192;-72
2022/07/26 00:38:25;;;;;;;6.47;5.82;;;22.90;99.90;;;;;;4994762;28;20205;-73
2022/07/26 00:40:51;;;;;;;8.77;6.13;;;22.90;99.90;;;;;;4979135;28;20626;-73
2022/07/26 00:43:16;;;;;;;7.28;5.60;;;22.90;99.90;;;;;;4992328;28;20300;-73
2022/07/26 00:45:42;;;;;;;8.20;5.53;;;23.00;99.90;;;;;;5000079;28;20217;-73
2022/07/26 00:48:08;;;;;;;6.20;5.32;;;22.90;99.90;;;;;;4974406;28;20202;-72
2022/07/26 00:50:33;;;;;;;8.70;5.85;;;22.90;99.90;;;;;;4987851;28;20210;-72
2022/07/26 00:52:59;;;;;;;7.10;5.38;;;22.80;99.90;;;;;;4995607;28;20669;-72
2022/07/26 00:55:25;;;;;;;7.43;5.05;;;22.80;99.90;;;;;;4994490;28;20210;-73
2022/07/26 00:57:51;;;;;;;7.53;5.38;;;22.80;99.90;;;;;;4991332;28;20586;-72
2022/07/26 01:00:20;;;;;;;7.53;5.40;;;22.70;99.90;;;;;;4983377;28;20637;-72
2022/07/26 01:02:46;;;;;;;6.28;5.00;;;22.80;99.90;;;;;;5000958;28;20249;-73
2022/07/26 01:05:12;;;;;;;6.30;5.47;;;22.70;99.90;;;;;;4991814;28;20214;-72
2022/07/26 01:07:38;;;;;;;6.45;5.50;;;22.70;99.90;;;;;;4993081;28;20245;-73
2022/07/26 01:10:07;;;;;;;8.38;5.75;;;22.80;99.90;;;;;;4987922;28;20211;-74
2022/07/26 01:12:33;;;;;;;6.75;4.82;;;22.70;99.90;;;;;;4981942;28;20213;-73
2022/07/26 01:14:58;;;;;;;5.68;5.00;;;22.70;99.90;;;;;;4990515;28;20533;-74
2022/07/26 01:17:24;;;;;;;11.00;6.00;;;22.80;99.90;;;;;;4966667;28;20195;-72
2022/07/26 01:19:49;;;;;;;8.35;6.20;;;22.80;99.90;;;;;;4999484;28;20292;-73
2022/07/26 01:22:15;;;;;;;8.38;6.63;;;22.70;99.90;;;;;;4991243;28;20229;-73
2022/07/26 01:24:41;;;;;;;8.32;6.85;;;22.60;99.90;;;;;;4987815;28;20211;-73
2022/07/26 01:27:07;;;;;;;9.60;8.10;;;22.70;99.90;;;;;;4988398;28;20217;-73
2022/07/26 01:29:32;;;;;;;16.27;11.77;;;22.60;99.90;;;;;;4995891;28;20198;-73
2022/07/26 01:31:58;;;;;;;9.13;7.68;;;22.60;99.90;;;;;;4990915;28;20206;-72
2022/07/26 01:34:24;;;;;;;8.57;7.20;;;22.60;99.90;;;;;;4965665;28;20206;-74
2022/07/26 01:36:49;;;;;;;9.77;8.45;;;22.50;99.90;;;;;;4983872;28;20848;-73
2022/07/26 01:39:15;;;;;;;14.30;10.35;;;22.50;99.90;;;;;;4991184;28;20233;-73
2022/07/26 01:41:41;;;;;;;11.07;8.35;;;22.40;99.90;;;;;;4992518;28;20177;-73
2022/07/26 01:44:06;;;;;;;11.32;9.20;;;22.40;99.90;;;;;;4989999;28;20697;-73
2022/07/26 01:46:33;;;;;;;11.02;8.18;;;22.50;99.90;;;;;;4995673;28;20230;-73
2022/07/26 01:49:00;;;;;;;9.70;8.68;;;22.50;99.90;;;;;;4991434;28;20216;-72
2022/07/26 01:51:26;;;;;;;13.25;7.93;;;22.40;99.90;;;;;;4983831;28;20211;-72
2022/07/26 01:53:51;;;;;;;10.07;7.70;;;22.40;99.90;;;;;;4999746;28;20682;-73
2022/07/26 01:56:17;;;;;;;9.82;8.57;;;22.30;99.90;;;;;;4992005;28;20185;-72
2022/07/26 01:58:42;;;;;;;9.13;7.80;;;22.20;99.90;;;;;;4988113;28;20229;-73
2022/07/26 02:01:08;;;;;;;9.90;7.85;;;22.20;99.90;;;;;;4970771;28;20241;-73
2022/07/26 02:03:34;;;;;;;9.40;7.88;;;22.20;99.90;;;;;;4995852;28;20222;-73
2022/07/26 02:06:01;;;;;;;9.20;7.55;;;22.30;99.90;;;;;;4977059;28;20599;-73
2022/07/26 02:08:26;;;;;;;8.65;7.15;;;22.30;99.90;;;;;;4988595;28;20194;-73
2022/07/26 02:11:01;;;;;;;9.00;7.25;;;22.20;99.90;;;;;;4993162;28;20592;-73
2022/07/26 02:13:33;;;;;;;9.07;6.72;;;22.00;99.90;;;;;;4993511;28;20252;-73
2022/07/26 02:15:59;;;;;;;8.60;6.80;;;22.00;99.90;;;;;;4993768;28;20212;-73
2022/07/26 02:18:26;;;;;;;6.90;6.20;;;22.00;99.90;;;;;;5010432;28;20296;-73
2022/07/26 02:20:52;;;;;;;7.60;6.57;;;22.00;99.90;;;;;;4988588;28;20219;-73
2022/07/26 02:23:18;;;;;;;7.40;6.43;;;22.10;99.90;;;;;;4989637;28;20174;-73
2022/07/26 02:25:44;;;;;;;8.77;6.53;;;22.10;99.90;;;;;;4975519;28;20205;-73
2022/07/26 02:28:10;;;;;;;7.47;6.70;;;22.10;99.90;;;;;;4993129;28;20205;-74
2022/07/26 02:30:37;;;;;;;8.25;6.40;;;22.10;99.90;;;;;;4992642;28;20210;-73
2022/07/26 02:33:02;;;;;;;9.18;6.38;;;22.00;99.90;;;;;;4969318;28;20672;-73
2022/07/26 02:35:30;;;;;;;8.30;6.63;;;22.00;99.90;;;;;;4990047;28;20209;-71
2022/07/26 02:38:10;;;;;;;7.88;5.88;;;22.00;99.90;;;;;;4980178;28;20288;-70
2022/07/26 02:40:37;;;;;;;7.07;6.32;;;21.90;99.90;;;;;;4989280;28;20697;-72
2022/07/26 02:43:04;;;;;;;8.70;6.18;;;21.90;99.90;;;;;;4967861;28;20292;-72
2022/07/26 02:45:30;;;;;;;7.22;6.28;;;21.80;99.90;;;;;;4996019;28;20210;-73
2022/07/26 02:47:56;;;;;;;9.60;6.28;;;21.80;99.90;;;;;;4978503;28;20586;-70
2022/07/26 02:50:23;;;;;;;9.15;6.32;;;21.80;99.90;;;;;;4964965;28;20186;-72
2022/07/26 02:52:50;;;;;;;8.57;6.75;;;21.80;99.90;;;;;;4988822;28;20201;-71
2022/07/26 02:55:17;;;;;;;8.02;6.55;;;21.80;99.90;;;;;;4992916;28;20201;-73
2022/07/26 02:57:43;;;;;;;7.30;6.50;;;21.80;99.90;;;;;;4996123;28;20286;-73
2022/07/26 03:02:48;;;;;;;8.02;6.65;;;21.70;99.90;;;;;;4976382;28;20229;-72
2022/07/26 03:05:13;;;;;;;12.07;9.40;;;21.70;99.90;;;;;;4966639;28;20213;-73
2022/07/26 03:07:39;;;;;;;10.77;8.30;;;21.70;99.90;;;;;;4963987;28;20222;-73
2022/07/26 03:10:06;;;;;;;12.50;9.98;;;21.70;99.90;;;;;;4949549;28;20722;-72
2022/07/26 03:12:31;;;;;;;9.23;6.97;;;21.70;99.90;;;;;;4974457;28;20219;-72
2022/07/26 03:14:57;;;;;;;8.70;6.78;;;21.50;99.90;;;;;;4969804;28;20193;-72
2022/07/26 03:17:22;;;;;;;7.75;6.65;;;21.60;99.90;;;;;;4962746;28;20179;-72
2022/07/26 03:19:48;;;;;;;8.00;6.35;;;21.50;99.90;;;;;;4978637;28;20197;-72
2022/07/26 03:22:13;;;;;;;7.93;6.10;;;21.40;99.90;;;;;;4971065;28;20214;-72
2022/07/26 03:24:39;;;;;;;7.40;5.63;;;21.40;99.90;;;;;;4967193;28;20306;-72
2022/07/26 03:27:05;;;;;;;6.90;5.20;;;21.40;99.90;;;;;;4967228;28;20189;-72
2022/07/26 03:29:30;;;;;;;7.20;5.53;;;21.30;99.90;;;;;;4974996;28;20179;-72
2022/07/26 03:31:56;;;;;;;5.70;4.78;;;21.40;99.90;;;;;;4970334;28;20288;-72
2022/07/26 03:34:22;;;;;;;6.90;5.50;;;21.30;99.90;;;;;;4962082;28;20321;-71
2022/07/26 03:36:48;;;;;;;7.68;4.72;;;21.40;99.90;;;;;;4979083;28;20205;-73
2022/07/26 03:39:13;;;;;;;7.32;4.38;;;21.40;99.90;;;;;;4970612;28;20210;-73
2022/07/26 03:41:39;;;;;;;7.90;4.68;;;21.40;99.90;;;;;;4967827;28;20199;-72
2022/07/26 03:44:04;;;;;;;6.07;4.70;;;21.40;99.90;;;;;;4967244;28;20743;-72
2022/07/26 03:46:30;;;;;;;6.60;4.50;;;21.40;99.90;;;;;;4974174;28;20725;-73
2022/07/26 03:48:56;;;;;;;7.75;4.40;;;21.30;99.90;;;;;;4972750;28;20229;-72
2022/07/26 03:51:22;;;;;;;7.55;4.07;;;21.40;99.90;;;;;;4970030;28;20255;-72
2022/07/26 03:53:48;;;;;;;8.50;3.75;;;21.30;99.90;;;;;;4976549;28;20561;-73
2022/07/26 03:56:30;;;;;;;5.18;3.70;;;21.40;99.90;;;;;;4974492;28;20207;-72
2022/07/26 03:58:58;;;;;;;6.60;3.72;;;21.40;99.90;;;;;;4968545;28;20221;-72
2022/07/26 04:01:24;;;;;;;8.45;4.07;;;21.40;99.90;;;;;;4970747;28;20214;-72
2022/07/26 04:03:49;;;;;;;6.88;3.63;;;21.50;99.90;;;;;;4979569;28;20340;-72
2022/07/26 04:06:15;;;;;;;6.50;3.78;;;21.50;99.90;;;;;;4970840;28;20222;-72
2022/07/26 04:08:40;;;;;;;8.73;3.45;;;21.70;99.90;;;;;;4969014;28;20279;-73
2022/07/26 04:11:06;;;;;;;5.50;3.72;;;21.70;99.90;;;;;;4963947;28;20222;-72
2022/07/26 04:13:32;;;;;;;5.25;3.72;;;21.80;99.90;;;;;;4975068;28;20218;-73
2022/07/26 04:15:57;;;;;;;6.65;3.80;;;22.00;99.90;;;;;;4970158;28;20210;-73
2022/07/26 04:18:23;;;;;;;8.63;3.47;;;22.10;99.90;;;;;;4970629;28;20214;-72
2022/07/26 04:20:48;;;;;;;5.63;4.00;;;22.20;99.90;;;;;;4980134;28;20219;-72
2022/07/26 04:23:14;;;;;;;4.38;3.60;;;22.30;99.90;;;;;;4971281;28;20210;-72
2022/07/26 04:25:40;;;;;;;5.75;3.70;;;22.60;99.90;;;;;;4967772;28;20203;-72
2022/07/26 04:28:06;;;;;;;9.05;4.20;;;22.70;99.90;;;;;;4962407;28;20301;-72
2022/07/26 04:30:31;;;;;;;6.18;3.78;;;22.70;99.90;;;;;;4974756;28;20242;-72
2022/07/26 04:32:57;;;;;;;5.57;3.85;;;22.60;99.90;;;;;;4970453;28;20241;-72
2022/07/26 04:35:23;;;;;;;6.15;3.80;;;22.70;99.90;;;;;;4960356;28;20178;-72
2022/07/26 04:37:48;;;;;;;5.88;3.70;;;22.70;99.90;;;;;;4979549;28;20236;-72
2022/07/26 04:40:18;;;;;;;6.95;4.07;;;22.70;99.90;;;;;;4957560;28;20691;-72
2022/07/26 04:42:45;;;;;;;5.68;3.47;;;22.80;99.90;;;;;;4968368;28;20206;-72
2022/07/26 04:45:12;;;;;;;8.13;3.92;;;23.00;99.90;;;;;;4975746;28;20233;-72
2022/07/26 04:47:44;;;;;;;6.32;3.42;;;23.40;99.90;;;;;;4960769;28;20226;-72
2022/07/26 04:50:13;;;;;;;5.07;3.58;;;23.40;99.90;;;;;;4968530;28;20727;-72
2022/07/26 04:52:39;;;;;;;8.85;3.80;;;24.10;99.90;;;;;;4953855;28;20214;-72
2022/07/26 04:55:05;;;;;;;6.72;3.35;;;24.70;99.90;;;;;;4977651;28;20202;-72
2022/07/26 04:57:31;;;;;;;4.40;3.38;;;24.80;99.90;;;;;;4971180;28;20297;-72
2022/07/26 04:59:57;;;;;;;6.57;4.00;;;25.00;99.90;;;;;;4965880;28;20666;-72
2022/07/26 05:02:23;;;;;;;5.93;4.10;;;24.80;99.90;;;;;;4975939;28;20321;-71
2022/07/26 05:04:48;;;;;;;8.30;4.00;;;24.90;99.90;;;;;;4976349;28;20222;-72
2022/07/26 05:07:14;;;;;;;7.30;4.22;;;25.10;99.90;;;;;;4968029;28;20225;-72
2022/07/26 05:09:39;;;;;;;6.03;3.83;;;25.70;99.90;;;;;;4973628;28;20231;-72
2022/07/26 05:12:05;;;;;;;6.75;4.22;;;25.70;99.90;;;;;;4971072;28;20630;-73
2022/07/26 05:14:31;;;;;;;7.30;4.07;;;25.60;99.90;;;;;;4972271;28;20179;-72
2022/07/26 05:16:56;;;;;;;10.30;4.05;;;25.50;99.90;;;;;;4966915;28;20210;-72
2022/07/26 05:19:22;;;;;;;7.00;4.05;;;25.50;99.90;;;;;;4961208;28;20212;-72
2022/07/26 05:21:47;;;;;;;6.05;3.75;;;25.10;99.90;;;;;;4976330;28;20301;-72
2022/07/26 05:24:13;;;;;;;5.65;3.72;;;25.20;99.90;;;;;;4968000;28;20213;-72
2022/07/26 05:26:38;;;;;;;7.60;3.90;;;25.50;99.90;;;;;;4967811;28;20209;-72
2022/07/26 05:29:04;;;;;;;5.45;3.55;;;26.50;99.90;;;;;;4977453;28;20273;-72
2022/07/26 05:31:30;;;;;;;8.18;3.65;;;27.10;99.90;;;;;;4971345;28;20213;-73
2022/07/26 05:33:55;;;;;;;9.55;3.47;;;27.10;99.90;;;;;;4967002;28;20911;-72
2022/07/26 05:36:21;;;;;;;7.03;3.38;;;27.70;99.90;;;;;;4974791;28;20628;-72
2022/07/26 05:38:46;;;;;;;5.80;3.15;;;28.20;99.90;;;;;;4976648;28;20344;-72
2022/07/26 05:41:12;;;;;;;6.82;5.25;;;29.20;99.90;;;;;;4966951;28;20270;-73
2022/07/26 05:43:37;;;;;;;8.48;4.45;;;28.90;99.90;;;;;;4956932;28;20269;-73
2022/07/26 05:46:03;;;;;;;7.93;4.28;;;29.30;99.90;;;;;;4977366;28;20209;-72
2022/07/26 05:48:29;;;;;;;6.10;4.28;;;29.30;99.90;;;;;;4970982;28;20214;-72
2022/07/26 05:50:54;;;;;;;8.20;3.17;;;29.70;99.90;;;;;;4955665;28;20295;-73
2022/07/26 05:53:20;;;;;;;14.77;3.65;;;29.90;99.90;;;;;;4967374;28;20181;-72
2022/07/26 05:55:45;;;;;;;10.43;3.33;;;29.90;99.90;;;;;;4976311;28;20213;-72
2022/07/26 05:58:11;;;;;;;6.93;2.80;;;30.00;99.90;;;;;;4967786;28;20333;-72
2022/07/26 06:00:36;;;;;;;3.88;2.47;;;29.70;99.90;;;;;;4966469;28;20230;-72
2022/07/26 06:03:20;;;;;;;8.57;3.20;;;30.20;99.90;;;;;;4977732;28;20725;-70
2022/07/26 06:05:47;;;;;;;5.13;2.58;;;31.00;99.90;;;;;;4969056;28;20169;-72
2022/07/26 06:08:12;;;;;;;5.43;2.75;;;31.20;99.90;;;;;;4964663;28;20220;-72
2022/07/26 06:10:38;;;;;;;8.85;3.28;;;30.80;99.90;;;;;;4980732;28;20206;-73
2022/07/26 06:13:03;;;;;;;7.78;3.45;;;31.20;99.90;;;;;;4973180;28;20226;-72
2022/07/26 06:15:29;;;;;;;3.80;2.63;;;32.00;99.90;;;;;;4950695;28;20266;-72
2022/07/26 06:17:54;;;;;;;5.93;3.05;;;32.60;99.90;;;;;;4968712;28;20185;-71
2022/07/26 06:20:20;;;;;;;47.80;5.97;;;33.00;99.90;;;;;;4975352;28;20273;-70
2022/07/26 06:22:46;;;;;;;11.18;3.50;;;33.40;99.90;;;;;;4959945;28;20213;-71
2022/07/26 06:25:11;;;;;;;4.80;2.45;;;32.80;99.90;;;;;;4965568;28;20230;-71
2022/07/26 06:27:37;;;;;;;8.35;3.03;;;32.80;99.90;;;;;;4971800;28;20288;-70
2022/07/26 06:30:03;;;;;;;5.68;2.70;;;32.50;99.90;;;;;;4974567;28;20681;-71
2022/07/26 06:32:29;;;;;;;5.30;2.72;;;32.30;99.90;;;;;;4968452;28;20684;-71
2022/07/26 06:34:54;;;;;;;6.50;2.47;;;32.70;99.90;;;;;;4964197;28;20305;-71
2022/07/26 06:37:20;;;;;;;7.47;2.40;;;32.10;99.90;;;;;;4959113;28;20698;-71
2022/07/26 06:39:46;;;;;;;7.32;2.17;;;32.10;99.90;;;;;;4959852;28;20208;-72
2022/07/26 06:42:11;;;;;;;6.15;2.97;;;32.30;99.90;;;;;;4965182;28;20295;-72
2022/07/26 06:44:37;;;;;;;8.27;2.75;;;31.60;99.90;;;;;;4972374;28;20214;-71
2022/07/26 06:47:02;;;;;;;4.93;2.80;;;30.90;99.90;;;;;;4974864;28;20214;-72
2022/07/26 06:49:28;;;;;;;6.38;2.40;;;30.50;99.90;;;;;;4967817;28;20289;-71
2022/07/26 06:51:56;;;;;;;6.13;2.15;;;31.00;99.90;;;;;;4953943;28;20293;-72
2022/07/26 06:54:22;;;;;;;5.78;2.20;;;31.00;99.90;;;;;;4955858;28;20688;-71
2022/07/26 06:56:48;;;;;;;8.57;2.05;;;30.80;99.90;;;;;;4973855;28;20185;-71
2022/07/26 06:59:13;;;;;;;4.78;2.17;;;30.90;99.90;;;;;;4965054;28;20385;-71
2022/07/26 07:01:39;;;;;;;4.45;1.83;;;31.30;99.90;;;;;;4972147;28;20586;-71
2022/07/26 07:04:04;;;;;;;7.85;1.92;;;31.90;99.90;;;;;;4974472;28;20206;-71
2022/07/26 07:06:30;;;;;;;6.40;2.45;;;32.00;99.90;;;;;;4968540;28;20222;-71
2022/07/26 07:08:55;;;;;;;4.35;1.83;;;31.30;99.90;;;;;;4967129;28;20549;-72
2022/07/26 07:11:21;;;;;;;4.78;1.90;;;31.30;99.90;;;;;;4972656;28;20697;-71
2022/07/26 07:13:46;;;;;;;5.82;2.20;;;31.60;99.90;;;;;;4973507;28;20209;-72
2022/07/26 07:16:12;;;;;;;4.53;1.80;;;31.70;99.90;;;;;;4965545;28;20206;-71
2022/07/26 07:18:37;;;;;;;7.00;2.20;;;31.70;99.90;;;;;;4971714;28;20215;-71
2022/07/26 07:21:03;;;;;;;6.13;1.95;;;31.10;99.90;;;;;;4975376;28;20237;-71
2022/07/26 07:23:29;;;;;;;5.38;2.05;;;30.90;99.90;;;;;;4954014;28;20234;-71
2022/07/26 07:25:54;;;;;;;7.28;2.63;;;31.30;99.90;;;;;;4968833;28;20253;-72
2022/07/26 07:28:20;;;;;;;3.83;2.08;;;31.80;99.90;;;;;;4976534;28;20299;-72
2022/07/26 07:30:46;;;;;;;4.82;2.10;;;32.30;99.90;;;;;;4964303;28;20582;-73
2022/07/26 07:33:12;;;;;;;4.82;2.03;;;32.50;99.90;;;;;;4952036;28;20742;-72
2022/07/26 07:35:39;;;;;;;4.05;2.05;;;32.20;99.90;;;;;;4969940;28;20244;-71
2022/07/26 07:38:04;;;;;;;7.82;2.10;;;31.90;99.90;;;;;;4978779;28;20210;-71
2022/07/26 07:40:30;;;;;;;4.28;1.52;;;32.40;99.90;;;;;;4973355;28;20207;-72
2022/07/26 07:42:57;;;;;;;5.13;2.10;;;33.10;99.90;;;;;;4968009;28;20216;-72
2022/07/26 07:45:22;;;;;;;4.68;1.90;;;33.70;99.90;;;;;;4977336;28;20213;-72
2022/07/26 07:47:48;;;;;;;9.27;3.35;;;34.20;99.90;;;;;;4977986;28;20212;-71
2022/07/26 07:50:13;;;;;;;5.53;2.25;;;34.00;98.80;;;;;;4969332;28;20221;-72
2022/07/26 07:52:39;;;;;;;5.45;3.08;;;34.50;98.10;;;;;;4969030;28;20205;-71
2022/07/26 07:55:05;;;;;;;4.97;2.13;;;35.10;97.90;;;;;;4978994;28;20700;-71
2022/07/26 07:57:31;;;;;;;5.60;2.03;;;34.70;96.90;;;;;;4972617;28;20217;-72
2022/07/26 07:59:56;;;;;;;6.32;2.38;;;33.60;98.50;;;;;;4957414;28;20170;-72
2022/07/26 08:02:22;;;;;;;7.07;2.05;;;34.20;98.20;;;;;;4976908;28;20909;-72
2022/07/26 08:04:47;;;;;;;10.23;2.20;;;33.10;97.60;;;;;;4977849;28;20709;-72
2022/07/26 08:07:13;;;;;;;14.35;2.65;;;32.60;99.40;;;;;;4970044;28;20592;-71
2022/07/26 08:09:39;;;;;;;10.02;2.63;;;32.10;99.70;;;;;;4974426;28;20222;-73
2022/07/26 08:12:04;;;;;;;5.03;1.88;;;32.00;99.90;;;;;;4976143;28;20214;-73
2022/07/26 08:14:30;;;;;;;5.95;1.65;;;31.60;99.90;;;;;;4973091;28;20186;-73
2022/07/26 08:16:56;;;;;;;7.00;1.73;;;31.30;99.90;;;;;;4965037;28;20203;-73
2022/07/26 08:19:21;;;;;;;8.85;2.20;;;30.90;99.90;;;;;;4962253;28;20229;-71
2022/07/26 08:21:47;;;;;;;7.75;4.22;;;30.60;99.90;;;;;;4978369;28;20256;-72
2022/07/26 08:24:12;;;;;;;10.80;2.33;;;29.70;99.90;;;;;;4970076;28;20202;-72
2022/07/26 08:26:38;;;;;;;5.18;2.20;;;29.10;99.90;;;;;;4969852;28;20597;-71
2022/07/26 08:29:04;;;;;;;4.63;2.10;;;28.70;99.90;;;;;;4979409;28;20746;-71
2022/07/26 08:31:29;;;;;;;4.55;1.73;;;27.70;99.90;;;;;;4973081;28;20219;-72
2022/07/26 08:33:55;;;;;;;4.03;1.75;;;26.90;99.90;;;;;;4957798;28;20213;-72
2022/07/26 08:36:21;;;;;;;4.15;1.70;;;26.80;99.90;;;;;;4969271;28;20703;-72
2022/07/26 08:38:47;;;;;;;5.13;1.73;;;26.70;99.90;;;;;;4978021;28;20224;-72
2022/07/26 08:41:12;;;;;;;5.35;1.70;;;27.80;99.90;;;;;;4968352;28;20285;-73
2022/07/26 08:43:38;;;;;;;3.00;1.60;;;28.70;99.90;;;;;;4971702;28;20333;-71
2022/07/26 08:46:04;;;;;;;4.10;2.10;;;29.90;99.90;;;;;;4963377;28;20206;-72
2022/07/26 08:48:29;;;;;;;3.65;1.50;;;28.90;99.90;;;;;;4973117;28;20321;-71
2022/07/26 08:50:55;;;;;;;2.95;1.48;;;28.50;99.90;;;;;;4975593;28;20213;-72
2022/07/26 08:53:22;;;;;;;4.40;1.65;;;27.90;99.90;;;;;;4969450;28;20257;-71
2022/07/26 08:55:48;;;;;;;4.63;1.98;;;27.90;99.90;;;;;;4978141;28;20218;-71
2022/07/26 08:58:13;;;;;;;5.45;1.63;;;27.90;99.90;;;;;;4969775;28;20206;-71
2022/07/26 09:00:42;;;;;;;4.78;1.80;;;27.50;99.90;;;;;;4968569;28;20258;-71
2022/07/26 09:03:23;;;;;;;2.30;1.38;;;27.00;99.90;;;;;;4995916;23;20233;-71
2022/07/26 09:05:49;;;;;;;2.08;1.60;;;26.80;99.90;;;;;;4971279;28;20802;-71
2022/07/26 09:08:28;;;;;;;7.28;1.73;;;26.70;99.90;;;;;;4957450;28;20302;-71
2022/07/26 09:10:55;;;;;;;2.13;1.17;;;26.40;99.90;;;;;;4974428;28;20718;-71
2022/07/26 09:13:22;;;;;;;6.30;1.40;;;26.40;99.90;;;;;;4974884;28;20703;-71
2022/07/26 09:16:06;;;;;;;3.05;1.63;;;26.40;99.90;;;;;;4966253;28;20277;-71
2022/07/26 09:18:32;;;;;;;5.60;1.20;;;27.70;99.90;;;;;;4964266;28;20218;-71
2022/07/26 09:20:57;;;;;;;3.22;1.23;;;28.60;99.90;;;;;;4977713;28;20169;-70
2022/07/26 09:23:23;;;;;;;5.22;1.60;;;28.40;99.90;;;;;;4970609;28;20205;-71
2022/07/26 09:25:49;;;;;;;3.75;1.50;;;27.80;99.90;;;;;;4967949;28;20202;-71
2022/07/26 09:28:29;;;;;;;3.17;1.50;;;27.30;99.90;;;;;;4961418;28;20296;-71
2022/07/26 09:30:57;;;;;;;4.50;1.35;;;27.20;99.90;;;;;;4958838;28;20210;-71
2022/07/26 09:33:22;;;;;;;3.65;1.30;;;27.70;99.90;;;;;;4966294;28;20305;-71
2022/07/26 09:36:04;;;;;;;4.78;1.77;;;28.50;99.90;;;;;;4968801;28;20333;-72
2022/07/26 09:38:39;;;;;;;7.47;4.28;;;28.30;99.90;;;;;;4959941;28;20211;-71
2022/07/26 09:41:26;;;;;;;5.30;1.70;;;29.40;99.90;;;;;;4952271;28;20217;-71
2022/07/26 09:43:53;;;;;;;3.15;1.70;;;28.70;99.90;;;;;;4968610;28;20232;-71
2022/07/26 09:46:19;;;;;;;13.82;2.70;;;28.60;99.90;;;;;;4974979;28;20622;-71
2022/07/26 09:48:45;;;;;;;4.63;1.80;;;29.10;99.90;;;;;;4955829;28;20217;-72
2022/07/26 09:51:10;;;;;;;7.43;1.75;;;28.40;99.90;;;;;;4966156;28;20268;-71
2022/07/26 09:53:45;;;;;;;6.82;2.30;;;28.20;99.90;;;;;;4972150;28;20712;-71
2022/07/26 09:56:11;;;;;;;5.32;1.70;;;28.00;99.90;;;;;;4970453;28;20209;-71
2022/07/26 09:58:37;;;;;;;6.10;2.25;;;28.50;99.90;;;;;;4968170;28;20285;-71
2022/07/26 10:01:07;;;;;;;4.82;1.95;;;29.00;99.90;;;;;;4969074;28;20217;-70
2022/07/26 10:03:34;;;;;;;2.42;1.40;;;29.00;99.90;;;;;;4976920;28;20237;-71
2022/07/26 10:06:02;;;;;;;3.90;1.58;;;28.40;99.90;;;;;;4972281;28;20174;-72
2022/07/26 10:08:29;;;;;;;6.72;2.17;;;27.90;99.90;;;;;;4965298;28;20207;-71
2022/07/26 10:11:07;;;;;;;3.65;1.80;;;27.10;99.90;;;;;;4974036;28;20268;-71
2022/07/26 10:13:32;;;;;;;6.05;3.08;;;26.60;99.90;;;;;;4973745;28;20298;-72
2022/07/26 10:15:58;;;;;;;4.88;2.58;;;26.70;99.90;;;;;;4956604;28;20826;-71
2022/07/26 10:18:36;;;;;;;6.10;3.30;;;26.90;99.90;;;;;;4962538;28;20272;-72
2022/07/26 10:21:25;;;;;;;4.80;1.48;;;27.00;99.90;;;;;;4975955;28;20170;-72
2022/07/26 10:23:55;;;;;;;5.35;1.73;;;27.00;99.90;;;;;;4965878;28;20228;-72
2022/07/26 10:26:35;;;;;;;3.22;1.60;;;27.30;99.90;;;;;;4962941;28;20191;-71
2022/07/26 10:29:16;;;;;;;2.33;1.58;;;27.30;99.90;;;;;;4977555;28;20214;-70
2022/07/26 10:31:46;;;;;;;6.40;1.85;;;27.30;99.90;;;;;;4972344;28;20221;-72
2022/07/26 10:34:30;;;;;;;2.92;1.73;;;27.30;99.90;;;;;;4964427;28;20735;-71
2022/07/26 10:37:01;;;;;;;5.38;1.75;;;27.40;99.90;;;;;;4974769;28;20209;-72
2022/07/26 10:39:26;;;;;;;6.30;1.73;;;27.30;99.90;;;;;;4971730;28;20297;-72
2022/07/26 10:42:09;;;;;;;8.00;3.08;;;27.00;99.90;;;;;;4971869;28;20293;-72
2022/07/26 10:44:43;;;;;;;2.97;1.85;;;26.60;99.90;;;;;;4971913;28;20194;-72
2022/07/26 10:47:14;;;;;;;4.88;1.33;;;26.60;99.90;;;;;;4958433;28;20221;-71
2022/07/26 10:49:55;;;;;;;5.55;1.73;;;27.00;99.90;;;;;;4969716;28;20246;-72
2022/07/26 10:52:26;;;;;;;4.70;1.88;;;27.30;99.90;;;;;;4960987;28;20859;-70
2022/07/26 10:54:57;;;;;;;3.17;1.50;;;27.80;99.90;;;;;;4972606;28;20228;-73
2022/07/26 10:57:36;;;;;;;11.27;2.03;;;27.70;99.90;;;;;;4970149;28;20218;-72
2022/07/26 11:00:22;;;;;;;6.07;1.52;;;27.10;99.90;;;;;;4951161;28;20179;-72
2022/07/26 11:02:56;;;;;;;4.45;1.33;;;27.10;99.90;;;;;;4964093;28;20209;-71
2022/07/26 11:05:28;;;;;;;3.97;1.52;;;26.70;99.90;;;;;;4975111;28;20251;-70
2022/07/26 11:07:57;;;;;;;3.72;1.60;;;26.70;99.90;;;;;;4977749;28;20244;-70
2022/07/26 11:10:24;;;;;;;5.47;1.90;;;26.50;99.90;;;;;;4953685;28;20240;-70
2022/07/26 11:13:04;;;;;;;4.57;1.58;;;27.10;99.90;;;;;;4985144;28;20209;-70
2022/07/26 11:15:29;;;;;;;6.72;2.20;;;27.60;99.90;;;;;;4976007;28;20300;-70
2022/07/26 11:18:10;;;;;;;3.92;1.33;;;27.60;99.90;;;;;;4967905;28;20211;-69
2022/07/26 11:20:37;;;;;;;3.47;1.52;;;28.10;99.90;;;;;;4980848;28;20175;-70
2022/07/26 11:23:02;;;;;;;2.10;1.13;;;28.30;99.90;;;;;;4974978;28;20243;-69
2022/07/26 11:25:28;;;;;;;6.65;2.25;;;28.60;99.90;;;;;;4968083;28;20240;-70
2022/07/26 11:27:59;;;;;;;6.63;3.00;;;28.70;99.90;;;;;;4981169;28;20217;-69
2022/07/26 11:30:24;;;;;;;5.53;2.00;;;28.50;99.90;;;;;;4975456;28;20219;-70
2022/07/26 11:32:56;;;;;;;4.40;1.60;;;28.60;99.90;;;;;;4974000;28;20635;-68
2022/07/26 11:35:21;;;;;;;3.65;1.75;;;28.20;99.90;;;;;;4951475;28;20186;-70
2022/07/26 11:37:57;;;;;;;3.28;2.38;;;28.10;99.90;;;;;;4981788;28;20740;-69
2022/07/26 11:40:46;;;;;;;6.40;1.95;;;28.00;99.90;;;;;;4972400;28;20229;-69
2022/07/26 11:43:12;;;;;;;8.68;2.53;;;27.50;99.90;;;;;;4952630;28;20708;-71
2022/07/26 11:45:37;;;;;;;4.00;1.65;;;26.70;99.90;;;;;;4986011;28;20217;-73
2022/07/26 11:48:04;;;;;;;5.45;1.60;;;26.70;99.90;;;;;;4965670;28;20698;-69
2022/07/26 11:50:30;;;;;;;5.07;1.73;;;26.60;99.90;;;;;;4953106;28;20175;-70
2022/07/26 11:52:56;;;;;;;2.45;1.67;;;26.60;99.90;;;;;;4970853;28;20202;-69
2022/07/26 11:55:26;;;;;;;4.30;1.75;;;26.70;99.90;;;;;;4961286;28;20302;-69
2022/07/26 11:57:51;;;;;;;5.70;1.75;;;26.60;99.90;;;;;;4974586;28;20706;-68
2022/07/26 12:00:17;;;;;;;3.05;1.70;;;26.70;99.90;;;;;;4966004;28;20211;-69
2022/07/26 12:02:43;;;;;;;3.25;1.80;;;26.70;99.90;;;;;;4975617;28;20682;-70
2022/07/26 12:05:19;;;;;;;4.13;1.80;;;26.50;99.90;;;;;;4975351;28;20208;-68
2022/07/26 12:08:03;;;;;;;4.45;2.03;;;26.10;99.90;;;;;;4971370;28;20753;-67
2022/07/26 12:10:29;;;;;;;3.92;1.67;;;26.00;99.90;;;;;;4972134;28;20584;-68
2022/07/26 12:13:11;;;;;;;5.05;2.20;;;25.90;99.90;;;;;;4977911;28;20304;-69
2022/07/26 12:16:03;;;;;;;3.50;1.60;;;25.30;99.90;;;;;;4971960;28;20302;-67
2022/07/26 12:18:32;;;;;;;9.32;3.38;;;24.10;99.90;;;;;;4962731;28;20227;-67
2022/07/26 12:21:04;;;;;;;11.00;2.70;;;23.40;99.90;;;;;;4984155;28;20260;-68
2022/07/26 12:23:44;;;;;;;5.90;2.72;;;22.70;99.90;;;;;;4972984;28;20349;-67
2022/07/26 12:26:30;;;;;;;5.55;2.10;;;22.10;99.90;;;;;;4951903;28;20210;-67
2022/07/26 12:28:58;;;;;;;6.32;2.28;;;21.90;99.90;;;;;;4975540;28;20259;-67
2022/07/26 12:31:29;;;;;;;3.10;2.20;;;21.60;99.90;;;;;;4979265;28;20210;-67
2022/07/26 12:33:55;;;;;;;4.38;2.65;;;21.40;99.90;;;;;;4969827;28;20209;-67
2022/07/26 12:36:22;;;;;;;4.57;2.38;;;21.40;99.90;;;;;;4952116;28;20294;-66
2022/07/26 12:38:51;;;;;;;5.15;2.88;;;21.30;99.90;;;;;;4978664;28;20190;-67
2022/07/26 12:41:38;;;;;;;3.75;3.00;;;21.10;99.90;;;;;;4971978;28;20205;-67
2022/07/26 12:44:05;;;;;;;5.30;2.22;;;21.30;99.90;;;;;;4971812;28;20308;-67
2022/07/26 12:46:33;;;;;;;2.80;2.28;;;21.20;99.90;;;;;;4978193;28;20310;-67
2022/07/26 12:48:59;;;;;;;2.67;2.42;;;21.50;99.90;;;;;;4973402;28;20614;-67
2022/07/26 12:51:24;;;;;;;2.88;1.85;;;21.40;99.90;;;;;;4965783;28;20217;-66